createdAt,value
2017-03-04T00:01:00.849Z,96.01
2017-03-04T00:02:11.174Z,96.11
2017-03-04T00:03:21.859Z,96.2
2017-03-04T00:04:32.558Z,96.11
2017-03-04T00:05:43.264Z,96.67
2017-03-04T00:06:53.986Z,96.2
2017-03-04T00:08:04.680Z,96.39
2017-03-04T00:09:14.980Z,96.39
2017-03-04T00:10:25.695Z,96.11
2017-03-04T00:11:36.027Z,96.67
2017-03-04T00:12:46.721Z,96.2
2017-03-04T00:13:57.413Z,96.86
2017-03-04T00:15:07.711Z,96.3
2017-03-04T00:16:18.458Z,96.86
2017-03-04T00:17:29.167Z,96.39
2017-03-04T00:18:39.897Z,96.48
2017-03-04T00:19:50.589Z,96.58
2017-03-04T00:21:00.907Z,96.01
2017-03-04T00:22:11.615Z,95.92
2017-03-04T00:23:22.316Z,95.92
2017-03-04T00:24:33.015Z,96.01
2017-03-04T00:25:43.716Z,96.39
2017-03-04T00:26:54.446Z,96.39
2017-03-04T00:28:05.151Z,96.11
2017-03-04T00:29:15.851Z,96.2
2017-03-04T00:30:26.535Z,95.92
2017-03-04T00:31:37.232Z,95.54
2017-03-04T00:32:47.956Z,96.3
2017-03-04T00:33:58.655Z,95.92
2017-03-04T00:35:09.363Z,95.4
2017-03-04T00:36:20.054Z,95.21
2017-03-04T00:37:30.751Z,94.6
2017-03-04T00:38:41.465Z,94.84
2017-03-04T00:39:52.190Z,94.88
2017-03-04T00:41:02.877Z,94.84
2017-03-04T00:42:13.584Z,95.59
2017-03-04T00:43:24.295Z,95.12
2017-03-04T00:44:35.005Z,94.84
2017-03-04T00:45:45.315Z,94.65
2017-03-04T00:46:56.006Z,94.36
2017-03-04T00:48:06.715Z,94.08
2017-03-04T00:49:17.006Z,94.55
2017-03-04T00:50:27.700Z,93.7
2017-03-04T00:51:38.415Z,93.61
2017-03-04T00:52:49.101Z,94.27
2017-03-04T00:53:59.796Z,93.65
2017-03-04T00:55:10.150Z,94.32
2017-03-04T00:56:20.841Z,94.22
2017-03-04T00:57:31.536Z,94.79
2017-03-04T00:58:42.233Z,94.98
2017-03-04T00:59:52.932Z,94.98
2017-03-04T01:01:03.634Z,94.98
2017-03-04T01:02:14.324Z,94.32
2017-03-04T01:03:25.013Z,94.98
2017-03-04T01:04:35.724Z,94.69
2017-03-04T01:05:46.415Z,94.88
2017-03-04T01:06:57.117Z,94.88
2017-03-04T01:08:07.889Z,94.69
2017-03-04T01:09:18.616Z,94.98
2017-03-04T01:10:29.310Z,94.98
2017-03-04T01:11:39.999Z,95.07
2017-03-04T01:12:50.706Z,94.69
2017-03-04T01:14:01.398Z,94.88
2017-03-04T01:15:12.092Z,95.36
2017-03-04T01:16:22.408Z,94.98
2017-03-04T01:17:33.092Z,95.36
2017-03-04T01:18:43.391Z,95.26
2017-03-04T01:19:54.091Z,95.07
2017-03-04T01:21:04.809Z,94.79
2017-03-04T01:22:15.506Z,95.36
2017-03-04T01:23:26.206Z,95.36
2017-03-04T01:24:36.900Z,95.26
2017-03-04T01:25:47.617Z,95.64
2017-03-04T01:26:58.324Z,95.26
2017-03-04T01:28:09.047Z,95.17
2017-03-04T01:29:19.761Z,95.45
2017-03-04T01:30:30.055Z,95.36
2017-03-04T01:31:40.777Z,96.11
2017-03-04T01:32:51.474Z,96.01
2017-03-04T01:34:02.164Z,96.39
2017-03-04T01:35:12.859Z,96.58
2017-03-04T01:36:23.187Z,96.11
2017-03-04T01:37:33.871Z,96.58
2017-03-04T01:38:44.595Z,96.01
2017-03-04T01:39:55.287Z,96.2
2017-03-04T01:41:06.008Z,96.11
2017-03-04T01:42:16.699Z,95.73
2017-03-04T01:43:27.387Z,96.2
2017-03-04T01:44:38.457Z,96.39
2017-03-04T01:45:49.170Z,96.3
2017-03-04T01:46:59.467Z,96.11
2017-03-04T01:48:10.161Z,96.48
2017-03-04T01:49:20.859Z,95.92
2017-03-04T01:50:31.171Z,96.77
2017-03-04T01:51:41.866Z,96.3
2017-03-04T01:52:52.572Z,96.11
2017-03-04T01:54:03.275Z,96.3
2017-03-04T01:55:13.971Z,96.3
2017-03-04T01:56:24.682Z,96.77
2017-03-04T01:57:35.366Z,95.92
2017-03-04T01:58:46.069Z,96.3
2017-03-04T01:59:56.789Z,97.05
2017-03-04T02:01:07.498Z,96.67
2017-03-04T02:02:18.229Z,96.3
2017-03-04T02:03:28.922Z,96.3
2017-03-04T02:04:39.622Z,96.48
2017-03-04T02:05:50.332Z,96.95
2017-03-04T02:07:01.043Z,96.39
2017-03-04T02:08:11.348Z,97.05
2017-03-04T02:09:22.038Z,96.58
2017-03-04T02:10:32.765Z,96.39
2017-03-04T02:11:43.451Z,96.11
2017-03-04T02:12:54.147Z,96.2
2017-03-04T02:14:04.869Z,96.2
2017-03-04T02:15:14.771Z,96.11
2017-03-04T02:16:25.477Z,95.73
2017-03-04T02:17:35.782Z,96.48
2017-03-04T02:18:46.496Z,95.73
2017-03-04T02:19:57.184Z,96.2
2017-03-04T02:21:07.877Z,96.48
2017-03-04T02:22:18.602Z,96.11
2017-03-04T02:23:29.295Z,96.77
2017-03-04T02:24:39.998Z,96.67
2017-03-04T02:25:50.707Z,96.48
2017-03-04T02:27:01.424Z,96.39
2017-03-04T02:28:11.735Z,96.3
2017-03-04T02:29:22.442Z,96.2
2017-03-04T02:30:33.161Z,96.77
2017-03-04T02:31:43.851Z,96.86
2017-03-04T02:32:54.557Z,96.67
2017-03-04T02:34:05.258Z,96.86
2017-03-04T02:35:15.944Z,96.77
2017-03-04T02:36:26.649Z,96.48
2017-03-04T02:37:37.351Z,96.77
2017-03-04T02:38:48.045Z,96.67
2017-03-04T02:39:58.746Z,96.58
2017-03-04T02:41:09.447Z,97.14
2017-03-04T02:42:20.165Z,97.24
2017-03-04T02:43:30.463Z,96.77
2017-03-04T02:44:41.172Z,96.58
2017-03-04T02:45:51.885Z,96.39
2017-03-04T02:47:02.578Z,96.3
2017-03-04T02:48:13.312Z,97.43
2017-03-04T02:49:23.662Z,96.3
2017-03-04T02:50:34.357Z,97.14
2017-03-04T02:51:45.055Z,96.48
2017-03-04T02:52:55.768Z,96.58
2017-03-04T02:54:06.479Z,96.11
2017-03-04T02:55:17.194Z,96.86
2017-03-04T02:56:27.913Z,96.3
2017-03-04T02:57:38.620Z,96.67
2017-03-04T02:58:49.320Z,96.77
2017-03-04T03:00:00.033Z,96.58
2017-03-04T03:01:10.342Z,96.58
2017-03-04T03:02:21.030Z,97.14
2017-03-04T03:03:31.743Z,96.67
2017-03-04T03:04:42.460Z,96.77
2017-03-04T03:05:53.157Z,96.95
2017-03-04T03:07:03.856Z,96.77
2017-03-04T03:08:14.608Z,96.58
2017-03-04T03:09:25.332Z,96.3
2017-03-04T03:10:36.031Z,96.67
2017-03-04T03:11:46.733Z,96.58
2017-03-04T03:12:57.428Z,96.2
2017-03-04T03:14:07.741Z,96.3
2017-03-04T03:15:17.657Z,96.95
2017-03-04T03:16:28.377Z,96.95
2017-03-04T03:17:39.071Z,95.92
2017-03-04T03:18:49.763Z,96.48
2017-03-04T03:20:00.450Z,96.48
2017-03-04T03:21:10.341Z,96.39
2017-03-04T03:22:20.651Z,96.3
2017-03-04T03:23:31.354Z,96.39
2017-03-04T03:24:42.054Z,96.48
2017-03-04T03:25:52.745Z,95.92
2017-03-04T03:27:02.667Z,97.05
2017-03-04T03:28:13.361Z,96.86
2017-03-04T03:29:24.057Z,96.3
2017-03-04T03:30:34.757Z,96.48
2017-03-04T03:31:45.488Z,96.48
2017-03-04T03:32:56.181Z,96.11
2017-03-04T03:34:06.895Z,96.01
2017-03-04T03:35:17.610Z,95.54
2017-03-04T03:36:28.358Z,95.36
2017-03-04T03:37:39.061Z,94.69
2017-03-04T03:38:49.768Z,94.88
2017-03-04T03:40:00.456Z,94.69
2017-03-04T03:41:11.176Z,94.88
2017-03-04T03:42:21.490Z,95.54
2017-03-04T03:43:32.209Z,96.2
2017-03-04T03:44:42.908Z,95.54
2017-03-04T03:45:53.599Z,96.3
2017-03-04T03:47:04.308Z,96.11
2017-03-04T03:48:15.029Z,96.39
2017-03-04T03:49:25.741Z,96.2
2017-03-04T03:50:36.450Z,96.01
2017-03-04T03:51:47.159Z,96.3
2017-03-04T03:52:57.856Z,96.11
2017-03-04T03:54:08.557Z,96.3
2017-03-04T03:55:19.248Z,96.77
2017-03-04T03:56:29.954Z,96.77
2017-03-04T03:57:40.660Z,96.39
2017-03-04T03:58:51.371Z,97.05
2017-03-04T04:00:02.067Z,96.77
2017-03-04T04:01:12.782Z,96.58
2017-03-04T04:02:23.079Z,97.14
2017-03-04T04:03:33.799Z,97.24
2017-03-04T04:04:44.517Z,97.24
2017-03-04T04:05:55.207Z,97.24
2017-03-04T04:07:05.935Z,97.43
2017-03-04T04:08:16.621Z,96.95
2017-03-04T04:09:27.336Z,97.33
2017-03-04T04:10:37.637Z,97.05
2017-03-04T04:11:48.355Z,97.05
2017-03-04T04:12:59.061Z,96.86
2017-03-04T04:14:09.783Z,97.14
2017-03-04T04:15:20.087Z,96.86
2017-03-04T04:16:30.783Z,97.14
2017-03-04T04:17:41.111Z,98.18
2017-03-04T04:18:51.799Z,97.61
2017-03-04T04:20:02.487Z,97.33
2017-03-04T04:21:13.183Z,97.9
2017-03-04T04:22:23.875Z,97.9
2017-03-04T04:23:36.665Z,97.8
2017-03-04T04:24:47.373Z,97.71
2017-03-04T04:25:58.091Z,97.8
2017-03-04T04:27:08.776Z,97.8
2017-03-04T04:28:19.489Z,97.8
2017-03-04T04:29:30.191Z,97.61
2017-03-04T04:30:40.908Z,97.71
2017-03-04T04:31:51.596Z,97.61
2017-03-04T04:33:02.322Z,97.8
2017-03-04T04:34:13.011Z,97.05
2017-03-04T04:35:23.700Z,96.95
2017-03-04T04:36:34.396Z,96.95
2017-03-04T04:37:45.114Z,97.43
2017-03-04T04:38:55.417Z,97.33
2017-03-04T04:40:05.724Z,97.43
2017-03-04T04:41:16.432Z,97.33
2017-03-04T04:42:26.328Z,97.99
2017-03-04T04:43:37.039Z,97.52
2017-03-04T04:44:47.738Z,97.43
2017-03-04T04:45:58.448Z,97.9
2017-03-04T04:47:08.771Z,97.8
2017-03-04T04:48:19.461Z,97.99
2017-03-04T04:49:29.777Z,97.71
2017-03-04T04:50:40.485Z,97.94
2017-03-04T04:51:51.199Z,97.99
2017-03-04T04:53:01.891Z,97.8
2017-03-04T04:54:12.584Z,97.9
2017-03-04T04:55:23.276Z,97.61
2017-03-04T04:56:33.965Z,97.8
2017-03-04T04:57:44.662Z,97.8
2017-03-04T04:58:55.402Z,97.66
2017-03-04T05:00:06.090Z,97.61
2017-03-04T05:01:16.437Z,97.8
2017-03-04T05:02:27.128Z,97.71
2017-03-04T05:03:37.823Z,97.99
2017-03-04T05:04:48.113Z,97.71
2017-03-04T05:05:58.813Z,98.6
2017-03-04T05:07:09.139Z,97.9
2017-03-04T05:08:19.854Z,97.9
2017-03-04T05:09:30.151Z,97.14
2017-03-04T05:10:40.856Z,97.05
2017-03-04T05:11:51.554Z,97.43
2017-03-04T05:13:02.242Z,97.8
2017-03-04T05:14:12.947Z,97.94
2017-03-04T05:15:23.636Z,98.04
2017-03-04T05:16:34.354Z,97.94
2017-03-04T05:17:45.046Z,98.6
2017-03-04T05:18:55.741Z,98.51
2017-03-04T05:20:06.444Z,98.51
2017-03-04T05:21:17.148Z,98.6
2017-03-04T05:22:27.449Z,98.23
2017-03-04T05:23:38.133Z,98.23
2017-03-04T05:24:48.847Z,98.51
2017-03-04T05:25:59.537Z,98.41
2017-03-04T05:27:09.832Z,98.41
2017-03-04T05:28:20.526Z,98.6
2017-03-04T05:29:31.234Z,98.41
2017-03-04T05:30:41.967Z,98.23
2017-03-04T05:31:52.665Z,98.6
2017-03-04T05:33:02.563Z,98.56
2017-03-04T05:34:13.248Z,98.56
2017-03-04T05:35:23.570Z,98.37
2017-03-04T05:36:34.277Z,98.13
2017-03-04T05:37:44.986Z,98.56
2017-03-04T05:38:55.693Z,98.51
2017-03-04T05:40:06.402Z,97.9
2017-03-04T05:41:17.101Z,98.09
2017-03-04T05:42:27.813Z,97.8
2017-03-04T05:43:38.497Z,98.18
2017-03-04T05:44:49.208Z,98.09
2017-03-04T05:45:59.930Z,98.09
2017-03-04T05:47:10.630Z,97.8
2017-03-04T05:48:21.328Z,97.8
2017-03-04T05:49:32.023Z,98.09
2017-03-04T05:50:42.708Z,97.99
2017-03-04T05:51:53.415Z,97.9
2017-03-04T05:53:04.130Z,98.09
2017-03-04T05:54:14.825Z,97.9
2017-03-04T05:55:24.762Z,97.61
2017-03-04T05:56:35.065Z,97.8
2017-03-04T05:57:45.759Z,97.99
2017-03-04T05:58:56.471Z,97.61
2017-03-04T06:00:07.173Z,97.71
2017-03-04T06:01:17.476Z,97.9
2017-03-04T06:02:28.159Z,97.99
2017-03-04T06:03:38.877Z,97.71
2017-03-04T06:04:49.570Z,97.9
2017-03-04T06:06:00.280Z,97.9
2017-03-04T06:07:10.984Z,98.65
2017-03-04T06:08:21.283Z,98.47
2017-03-04T06:09:31.983Z,98.94
2017-03-04T06:10:42.667Z,98.84
2017-03-04T06:11:53.380Z,98.94
2017-03-04T06:13:04.118Z,98.84
2017-03-04T06:14:14.838Z,98.65
2017-03-04T06:15:25.541Z,98.56
2017-03-04T06:16:36.233Z,98.75
2017-03-04T06:17:46.939Z,98.75
2017-03-04T06:18:57.636Z,98.75
2017-03-04T06:20:08.328Z,99.03
2017-03-04T06:21:19.035Z,99.13
2017-03-04T06:22:29.342Z,99.03
2017-03-04T06:23:40.037Z,99.32
2017-03-04T06:24:50.738Z,99.03
2017-03-04T06:26:01.036Z,99.22
2017-03-04T06:27:11.737Z,98.84
2017-03-04T06:28:22.058Z,99.03
2017-03-04T06:29:32.364Z,99.32
2017-03-04T06:30:43.085Z,99.03
2017-03-04T06:31:53.770Z,98.84
2017-03-04T06:33:04.488Z,98.75
2017-03-04T06:34:15.178Z,98.84
2017-03-04T06:35:25.881Z,98.47
2017-03-04T06:36:36.607Z,98.37
2017-03-04T06:37:47.308Z,98.18
2017-03-04T06:38:58.018Z,98.37
2017-03-04T06:40:08.324Z,98.56
2017-03-04T06:41:19.027Z,98.37
2017-03-04T06:42:29.375Z,98.65
2017-03-04T06:43:40.082Z,98.65
2017-03-04T06:44:50.786Z,97.99
2017-03-04T06:46:01.490Z,97.9
2017-03-04T06:47:12.190Z,97.71
2017-03-04T06:48:22.481Z,97.9
2017-03-04T06:49:33.198Z,97.33
2017-03-04T06:50:43.889Z,97.43
2017-03-04T06:51:54.653Z,97.14
2017-03-04T06:53:05.362Z,97.43
2017-03-04T06:54:16.061Z,97.33
2017-03-04T06:55:26.755Z,96.95
2017-03-04T06:56:37.447Z,96.95
2017-03-04T06:57:47.748Z,97.43
2017-03-04T06:58:58.439Z,97.14
2017-03-04T07:00:09.146Z,97.33
2017-03-04T07:01:19.838Z,97.05
2017-03-04T07:02:30.549Z,97.14
2017-03-04T07:03:41.256Z,97.24
2017-03-04T07:04:51.964Z,97.33
2017-03-04T07:06:02.265Z,97.14
2017-03-04T07:07:12.960Z,97.05
2017-03-04T07:08:23.701Z,97.43
2017-03-04T07:09:34.392Z,97.05
2017-03-04T07:10:45.090Z,96.95
2017-03-04T07:11:55.798Z,97.14
2017-03-04T07:13:06.486Z,97.33
2017-03-04T07:14:17.192Z,97.24
2017-03-04T07:15:27.515Z,96.95
2017-03-04T07:16:38.227Z,96.95
2017-03-04T07:17:48.927Z,97.33
2017-03-04T07:18:59.625Z,96.95
2017-03-04T07:20:09.946Z,97.33
2017-03-04T07:21:20.657Z,97.14
2017-03-04T07:22:31.362Z,97.14
2017-03-04T07:23:42.058Z,97.24
2017-03-04T07:24:52.767Z,97.05
2017-03-04T07:26:03.465Z,97.05
2017-03-04T07:27:13.788Z,96.67
2017-03-04T07:28:24.488Z,96.67
2017-03-04T07:29:35.193Z,96.86
2017-03-04T07:30:45.913Z,96.48
2017-03-04T07:31:56.634Z,96.3
2017-03-04T07:33:07.335Z,95.83
2017-03-04T07:34:18.056Z,95.92
2017-03-04T07:35:28.757Z,96.86
2017-03-04T07:36:39.455Z,96.58
2017-03-04T07:37:50.161Z,95.68
2017-03-04T07:39:00.870Z,95.12
2017-03-04T07:40:11.585Z,94.79
2017-03-04T07:41:22.313Z,95.17
2017-03-04T07:42:32.618Z,94.93
2017-03-04T07:43:43.306Z,95.12
2017-03-04T07:44:53.994Z,94.65
2017-03-04T07:46:04.703Z,95.07
2017-03-04T07:47:15.391Z,95.17
2017-03-04T07:48:26.090Z,94.98
2017-03-04T07:49:36.799Z,94.98
2017-03-04T07:50:47.509Z,95.12
2017-03-04T07:51:58.206Z,94.65
2017-03-04T07:53:08.898Z,94.74
2017-03-04T07:54:19.599Z,94.27
2017-03-04T07:55:30.339Z,95.03
2017-03-04T07:56:41.058Z,94.74
2017-03-04T07:57:51.765Z,94.08
2017-03-04T07:59:02.473Z,94.84
2017-03-04T08:00:13.160Z,94.36
2017-03-04T08:01:25.878Z,94.46
2017-03-04T08:02:36.583Z,94.84
2017-03-04T08:03:47.299Z,94.84
2017-03-04T08:04:57.996Z,95.31
2017-03-04T08:06:08.726Z,94.79
2017-03-04T08:07:19.453Z,95.59
2017-03-04T08:08:29.752Z,95.31
2017-03-04T08:09:40.487Z,95.4
2017-03-04T08:10:51.179Z,95.5
2017-03-04T08:12:01.887Z,95.45
2017-03-04T08:13:12.195Z,95.64
2017-03-04T08:14:22.517Z,95.5
2017-03-04T08:15:33.214Z,95.31
2017-03-04T08:16:43.918Z,95.54
2017-03-04T08:17:54.633Z,95.78
2017-03-04T08:19:04.959Z,95.21
2017-03-04T08:20:15.665Z,95.4
2017-03-04T08:21:26.365Z,95.68
2017-03-04T08:22:37.062Z,94.74
2017-03-04T08:23:47.785Z,95.03
2017-03-04T08:24:58.505Z,95.21
2017-03-04T08:26:08.817Z,95.21
2017-03-04T08:27:19.507Z,95.31
2017-03-04T08:28:30.258Z,95.21
2017-03-04T08:29:40.967Z,95.12
2017-03-04T08:30:51.667Z,95.21
2017-03-04T08:32:02.370Z,94.93
2017-03-04T08:33:13.073Z,95.4
2017-03-04T08:34:23.400Z,95.31
2017-03-04T08:35:33.694Z,95.31
2017-03-04T08:36:44.380Z,95.03
2017-03-04T08:37:55.087Z,94.93
2017-03-04T08:39:05.383Z,94.84
2017-03-04T08:40:16.083Z,94.84
2017-03-04T08:41:26.802Z,94.65
2017-03-04T08:42:37.560Z,95.12
2017-03-04T08:43:48.261Z,94.93
2017-03-04T08:44:58.958Z,95.12
2017-03-04T08:46:09.658Z,94.93
2017-03-04T08:47:20.392Z,94.84
2017-03-04T08:48:31.120Z,94.65
2017-03-04T08:49:41.823Z,95.03
2017-03-04T08:50:52.524Z,94.89
2017-03-04T08:52:03.248Z,94.13
2017-03-04T08:53:13.942Z,94.22
2017-03-04T08:54:24.249Z,94.32
2017-03-04T08:55:34.949Z,93.75
2017-03-04T08:56:45.643Z,93.66
2017-03-04T08:57:56.352Z,93.47
2017-03-04T08:59:07.093Z,93.37
2017-03-04T09:00:17.796Z,93.28
2017-03-04T09:01:28.499Z,93.18
2017-03-04T09:02:39.222Z,92.8
2017-03-04T09:03:49.933Z,93.37
2017-03-04T09:05:00.622Z,92.8
2017-03-04T09:06:10.943Z,93.75
2017-03-04T09:07:21.640Z,93.75
2017-03-04T09:08:32.369Z,93.09
2017-03-04T09:09:43.093Z,92.61
2017-03-04T09:10:53.832Z,91.96
2017-03-04T09:12:04.536Z,91.44
2017-03-04T09:13:14.834Z,91.39
2017-03-04T09:14:25.544Z,91.2
2017-03-04T09:15:36.251Z,91.01
2017-03-04T09:16:46.976Z,91.39
2017-03-04T09:17:57.681Z,91.49
2017-03-04T09:19:08.398Z,91.39
2017-03-04T09:20:19.105Z,92.05
2017-03-04T09:21:29.420Z,91.15
2017-03-04T09:22:40.126Z,90.73
2017-03-04T09:23:50.823Z,90.07
2017-03-04T09:25:01.524Z,90.64
2017-03-04T09:26:12.225Z,90.45
2017-03-04T09:27:22.914Z,90.64
2017-03-04T09:28:33.699Z,91.3
2017-03-04T09:29:44.401Z,91.11
2017-03-04T09:30:55.128Z,91.49
2017-03-04T09:32:05.857Z,91.39
2017-03-04T09:33:16.587Z,91.01
2017-03-04T09:34:27.290Z,91.11
2017-03-04T09:35:38.003Z,91.3
2017-03-04T09:36:48.727Z,91.49
2017-03-04T09:37:59.433Z,91.49
2017-03-04T09:39:10.134Z,91.58
2017-03-04T09:40:20.859Z,91.58
2017-03-04T09:41:33.560Z,91.2
2017-03-04T09:42:44.263Z,91.01
2017-03-04T09:43:54.956Z,91.11
2017-03-04T09:45:05.275Z,90.54
2017-03-04T09:46:15.987Z,90.49
2017-03-04T09:47:26.689Z,90.21
2017-03-04T09:48:37.382Z,89.83
2017-03-04T09:49:48.082Z,89.45
2017-03-04T09:50:58.794Z,89.64
2017-03-04T09:52:09.135Z,89.26
2017-03-04T09:53:19.864Z,89.17
2017-03-04T09:54:30.588Z,89.17
2017-03-04T09:55:41.284Z,88.7
2017-03-04T09:56:52.020Z,88.7
2017-03-04T09:58:02.726Z,88.89
2017-03-04T09:59:13.436Z,89.36
2017-03-04T10:00:24.136Z,89.36
2017-03-04T10:01:34.871Z,88.79
2017-03-04T10:02:45.570Z,88.89
2017-03-04T10:03:56.274Z,88.89
2017-03-04T10:05:06.582Z,88.42
2017-03-04T10:06:17.277Z,88.7
2017-03-04T10:07:27.992Z,88.98
2017-03-04T10:08:38.690Z,88.13
2017-03-04T10:09:49.395Z,88.04
2017-03-04T10:11:00.088Z,87.85
2017-03-04T10:12:10.802Z,88.27
2017-03-04T10:13:21.511Z,88.08
2017-03-04T10:14:32.268Z,87.32
2017-03-04T10:15:42.975Z,86.29
2017-03-04T10:16:53.680Z,86.38
2017-03-04T10:18:04.391Z,86.57
2017-03-04T10:19:15.119Z,87.42
2017-03-04T10:20:25.812Z,88.17
2017-03-04T10:21:36.532Z,87.42
2017-03-04T10:22:47.262Z,86.76
2017-03-04T10:23:57.988Z,87.56
2017-03-04T10:25:08.311Z,87.85
2017-03-04T10:26:19.042Z,87.47
2017-03-04T10:27:29.361Z,87.51
2017-03-04T10:28:40.097Z,87.89
2017-03-04T10:29:50.836Z,87.32
2017-03-04T10:31:01.532Z,87.04
2017-03-04T10:32:12.267Z,87.56
2017-03-04T10:33:22.977Z,87.85
2017-03-04T10:34:33.690Z,87.66
2017-03-04T10:35:44.394Z,88.51
2017-03-04T10:36:55.095Z,88.79
2017-03-04T10:38:05.801Z,88.89
2017-03-04T10:39:16.516Z,88.6
2017-03-04T10:40:27.234Z,88.98
2017-03-04T10:41:37.961Z,88.7
2017-03-04T10:42:48.660Z,89.36
2017-03-04T10:43:58.977Z,89.17
2017-03-04T10:45:09.692Z,88.89
2017-03-04T10:46:20.405Z,88.32
2017-03-04T10:47:31.105Z,88.51
2017-03-04T10:48:41.816Z,88.13
2017-03-04T10:49:52.518Z,88.42
2017-03-04T10:51:02.828Z,88.7
2017-03-04T10:52:13.534Z,88.98
2017-03-04T10:53:24.247Z,88.79
2017-03-04T10:54:34.547Z,89.36
2017-03-04T10:55:45.252Z,89.73
2017-03-04T10:56:55.963Z,89.36
2017-03-04T10:58:06.665Z,90.02
2017-03-04T10:59:17.373Z,89.83
2017-03-04T11:00:28.070Z,90.02
2017-03-04T11:01:38.765Z,89.64
2017-03-04T11:02:49.486Z,89.45
2017-03-04T11:04:00.190Z,89.73
2017-03-04T11:05:10.908Z,90.02
2017-03-04T11:06:21.631Z,89.92
2017-03-04T11:07:32.333Z,89.54
2017-03-04T11:08:43.035Z,89.54
2017-03-04T11:09:53.344Z,89.64
2017-03-04T11:11:03.651Z,89.78
2017-03-04T11:12:14.385Z,89.31
2017-03-04T11:13:25.099Z,88.27
2017-03-04T11:14:35.813Z,88.36
2017-03-04T11:15:46.506Z,88.55
2017-03-04T11:16:57.243Z,89.03
2017-03-04T11:18:07.948Z,88.84
2017-03-04T11:19:18.649Z,88.89
2017-03-04T11:20:28.958Z,88.98
2017-03-04T11:21:39.662Z,88.89
2017-03-04T11:22:50.394Z,88.89
2017-03-04T11:24:01.114Z,89.64
2017-03-04T11:25:11.812Z,89.54
2017-03-04T11:26:22.533Z,89.64
2017-03-04T11:27:33.376Z,89.36
2017-03-04T11:28:43.686Z,90.02
2017-03-04T11:29:54.392Z,89.92
2017-03-04T11:31:05.085Z,90.02
2017-03-04T11:32:15.395Z,90.02
2017-03-04T11:33:26.099Z,90.06
2017-03-04T11:34:36.801Z,89.4
2017-03-04T11:35:47.514Z,88.74
2017-03-04T11:36:58.223Z,89.4
2017-03-04T11:38:08.935Z,88.74
2017-03-04T11:39:19.640Z,88.84
2017-03-04T11:40:29.966Z,88.93
2017-03-04T11:41:40.662Z,89.5
2017-03-04T11:42:51.352Z,90.06
2017-03-04T11:44:02.063Z,89.78
2017-03-04T11:45:11.983Z,89.87
2017-03-04T11:46:22.695Z,89.69
2017-03-04T11:47:33.414Z,89.5
2017-03-04T11:48:44.115Z,89.4
2017-03-04T11:49:54.813Z,89.4
2017-03-04T11:51:05.538Z,90.16
2017-03-04T11:52:16.246Z,90.35
2017-03-04T11:53:26.972Z,89.97
2017-03-04T11:54:37.687Z,89.69
2017-03-04T11:55:48.404Z,90.35
2017-03-04T11:56:58.716Z,90.44
2017-03-04T11:58:09.047Z,90.25
2017-03-04T11:59:19.765Z,89.5
2017-03-04T12:00:30.464Z,88.65
2017-03-04T12:01:41.171Z,88.36
2017-03-04T12:02:51.895Z,88.46
2017-03-04T12:04:02.635Z,89.22
2017-03-04T12:05:13.346Z,88.93
2017-03-04T12:06:24.050Z,88.93
2017-03-04T12:07:34.759Z,89.03
2017-03-04T12:08:45.494Z,89.31
2017-03-04T12:09:56.213Z,88.93
2017-03-04T12:11:06.933Z,88.93
2017-03-04T12:12:17.645Z,89.69
2017-03-04T12:13:28.343Z,90.06
2017-03-04T12:14:39.043Z,90.25
2017-03-04T12:15:49.745Z,91.29
2017-03-04T12:17:00.450Z,91.77
2017-03-04T12:18:11.168Z,91.34
2017-03-04T12:19:21.932Z,91.58
2017-03-04T12:20:32.626Z,92
2017-03-04T12:21:43.338Z,91.72
2017-03-04T12:22:54.038Z,92.47
2017-03-04T12:24:04.749Z,91.91
2017-03-04T12:25:15.060Z,91.63
2017-03-04T12:26:25.775Z,92.1
2017-03-04T12:27:36.468Z,92.33
2017-03-04T12:28:46.766Z,91.48
2017-03-04T12:29:57.461Z,91.58
2017-03-04T12:31:07.761Z,91.48
2017-03-04T12:32:18.460Z,91.29
2017-03-04T12:33:28.779Z,90.44
2017-03-04T12:34:39.484Z,89.69
2017-03-04T12:35:50.186Z,89.78
2017-03-04T12:37:00.910Z,89.31
2017-03-04T12:38:11.628Z,89.87
2017-03-04T12:39:21.559Z,90.35
2017-03-04T12:40:32.262Z,90.54
2017-03-04T12:41:43.029Z,90.54
2017-03-04T12:42:53.741Z,89.87
2017-03-04T12:44:04.463Z,90.06
2017-03-04T12:45:15.167Z,89.78
2017-03-04T12:46:25.872Z,89.69
2017-03-04T12:47:36.582Z,89.69
2017-03-04T12:48:47.283Z,89.78
2017-03-04T12:49:57.995Z,88.84
2017-03-04T12:51:08.711Z,89.5
2017-03-04T12:52:19.433Z,89.69
2017-03-04T12:53:30.140Z,90.54
2017-03-04T12:54:40.857Z,90.35
2017-03-04T12:55:51.577Z,90.44
2017-03-04T12:57:02.272Z,90.44
2017-03-04T12:58:12.971Z,91.39
2017-03-04T12:59:23.673Z,91.44
2017-03-04T13:00:34.399Z,91.63
2017-03-04T13:01:45.475Z,92
2017-03-04T13:02:56.170Z,92.29
2017-03-04T13:04:06.894Z,92.1
2017-03-04T13:05:17.189Z,91.77
2017-03-04T13:06:27.898Z,92.24
2017-03-04T13:07:38.593Z,91.39
2017-03-04T13:08:49.315Z,91.2
2017-03-04T13:10:00.021Z,91.39
2017-03-04T13:11:10.715Z,90.91
2017-03-04T13:12:21.440Z,91.2
2017-03-04T13:13:32.143Z,91.1
2017-03-04T13:14:42.872Z,91.39
2017-03-04T13:15:53.199Z,90.44
2017-03-04T13:17:03.899Z,89.69
2017-03-04T13:18:14.638Z,89.5
2017-03-04T13:19:25.346Z,89.07
2017-03-04T13:20:36.063Z,88.84
2017-03-04T13:21:46.372Z,89.03
2017-03-04T13:22:57.076Z,89.22
2017-03-04T13:24:07.785Z,89.12
2017-03-04T13:25:18.493Z,88.93
2017-03-04T13:26:29.199Z,89.69
2017-03-04T13:27:39.905Z,89.59
2017-03-04T13:28:50.622Z,89.92
2017-03-04T13:30:01.329Z,88.98
2017-03-04T13:31:11.648Z,89.17
2017-03-04T13:32:22.346Z,88.88
2017-03-04T13:33:33.037Z,88.41
2017-03-04T13:34:43.757Z,88.84
2017-03-04T13:35:54.480Z,90.06
2017-03-04T13:37:05.185Z,89.59
2017-03-04T13:38:15.890Z,89.59
2017-03-04T13:39:26.588Z,89.36
2017-03-04T13:40:37.299Z,88.98
2017-03-04T13:41:47.653Z,88.98
2017-03-04T13:42:58.361Z,88.5
2017-03-04T13:44:09.083Z,88.12
2017-03-04T13:45:19.810Z,88.5
2017-03-04T13:46:30.116Z,88.5
2017-03-04T13:47:40.824Z,88.5
2017-03-04T13:48:51.537Z,88.22
2017-03-04T13:50:02.244Z,87.55
2017-03-04T13:51:12.954Z,88.12
2017-03-04T13:52:23.278Z,88.46
2017-03-04T13:53:33.992Z,88.93
2017-03-04T13:54:44.313Z,89.4
2017-03-04T13:55:55.026Z,88.79
2017-03-04T13:57:05.350Z,88.5
2017-03-04T13:58:16.053Z,88.22
2017-03-04T13:59:26.783Z,88.5
2017-03-04T14:00:37.505Z,88.74
2017-03-04T14:01:48.208Z,89.69
2017-03-04T14:02:58.920Z,89.87
2017-03-04T14:04:09.626Z,90.25
2017-03-04T14:05:20.319Z,89.97
2017-03-04T14:06:30.622Z,90.25
2017-03-04T14:07:41.332Z,90.35
2017-03-04T14:08:52.049Z,89.87
2017-03-04T14:10:02.765Z,89.97
2017-03-04T14:11:13.093Z,90.35
2017-03-04T14:12:23.796Z,91.2
2017-03-04T14:13:34.510Z,91.48
2017-03-04T14:14:44.806Z,91.67
2017-03-04T14:15:55.517Z,92.33
2017-03-04T14:17:06.222Z,92.71
2017-03-04T14:18:16.931Z,92.47
2017-03-04T14:19:27.641Z,92.57
2017-03-04T14:20:38.367Z,92.1
2017-03-04T14:21:49.068Z,92.71
2017-03-04T14:22:59.779Z,92.47
2017-03-04T14:24:10.122Z,93.18
2017-03-04T14:25:20.834Z,92.24
2017-03-04T14:26:31.546Z,92.14
2017-03-04T14:27:42.249Z,92.8
2017-03-04T14:28:52.949Z,92.52
2017-03-04T14:30:03.672Z,92.66
2017-03-04T14:31:14.400Z,92.57
2017-03-04T14:32:24.722Z,93.04
2017-03-04T14:33:35.420Z,92.66
2017-03-04T14:34:45.728Z,93.42
2017-03-04T14:35:56.424Z,92.71
2017-03-04T14:37:07.133Z,92.9
2017-03-04T14:38:17.445Z,92.52
2017-03-04T14:39:28.169Z,92.52
2017-03-04T14:40:38.880Z,93.42
2017-03-04T14:41:49.173Z,93.51
2017-03-04T14:42:59.891Z,93.32
2017-03-04T14:44:10.590Z,93.61
2017-03-04T14:45:21.308Z,93.61
2017-03-04T14:46:32.033Z,93.37
2017-03-04T14:47:42.749Z,93.89
2017-03-04T14:48:53.069Z,94.37
2017-03-04T14:50:03.777Z,94.37
2017-03-04T14:51:14.476Z,94.46
2017-03-04T14:52:23.980Z,94.37
2017-03-04T14:53:34.689Z,94.56
2017-03-04T14:54:45.388Z,93.89
2017-03-04T14:55:55.699Z,93.7
2017-03-04T14:57:06.406Z,94.46
2017-03-04T14:58:17.113Z,94.27
2017-03-04T14:59:27.433Z,94.37
2017-03-04T15:00:37.724Z,94.56
2017-03-04T15:01:47.622Z,94.74
2017-03-04T15:02:58.332Z,95.12
2017-03-04T15:04:09.039Z,95.03
2017-03-04T15:05:19.336Z,95.03
2017-03-04T15:06:29.639Z,96.06
2017-03-04T15:07:39.539Z,96.35
2017-03-04T15:08:50.235Z,96.44
2017-03-04T15:10:00.944Z,96.54
2017-03-04T15:11:11.247Z,96.73
2017-03-04T15:12:21.960Z,97.2
2017-03-04T15:13:32.663Z,97.48
2017-03-04T15:14:42.978Z,98.24